createdAt,value
2023-02-15T00:00:12.600Z,71.98
2023-02-15T00:02:18.335Z,71.95
2023-02-15T00:04:24.257Z,71.78
2023-02-15T00:06:27.057Z,71.92
2023-02-15T00:08:29.892Z,72.09
2023-02-15T00:10:32.686Z,71.99
2023-02-15T00:12:35.612Z,71.94
2023-02-15T00:14:38.453Z,71.88
2023-02-15T00:16:42.968Z,72.03
2023-02-15T00:18:45.738Z,72.07
2023-02-15T00:20:48.421Z,72.28
2023-02-15T00:22:52.151Z,71.99
2023-02-15T00:24:55.076Z,71.87
2023-02-15T00:26:58.394Z,71.44
2023-02-15T00:29:01.213Z,71.80
2023-02-15T00:31:06.045Z,71.60
2023-02-15T00:33:11.676Z,71.50
2023-02-15T00:35:17.034Z,71.63
2023-02-15T00:37:19.697Z,71.64
2023-02-15T00:39:23.592Z,71.91
2023-02-15T00:41:26.374Z,71.89
2023-02-15T00:43:30.523Z,71.48
2023-02-15T00:45:33.261Z,71.57
2023-02-15T00:47:36.052Z,71.78
2023-02-15T00:49:38.842Z,71.92
2023-02-15T00:51:41.721Z,71.83
2023-02-15T00:53:44.852Z,71.36
2023-02-15T00:55:47.668Z,71.62
2023-02-15T00:57:50.520Z,71.63
2023-02-15T00:59:53.306Z,71.59
2023-02-15T01:01:56.021Z,71.39
2023-02-15T01:03:58.920Z,71.53
2023-02-15T01:06:02.805Z,71.40
2023-02-15T01:08:06.226Z,71.67
2023-02-15T01:10:09.873Z,71.70
2023-02-15T01:12:12.838Z,71.81
2023-02-15T01:14:15.621Z,71.75
2023-02-15T01:16:19.396Z,72.01
2023-02-15T01:18:22.846Z,71.55
2023-02-15T01:20:28.262Z,71.36
2023-02-15T01:22:31.055Z,71.35
2023-02-15T01:24:34.079Z,71.20
2023-02-15T01:26:38.302Z,71.29
2023-02-15T01:28:41.741Z,71.16
2023-02-15T01:30:44.609Z,71.24
2023-02-15T01:32:47.441Z,70.93
2023-02-15T01:34:50.140Z,71.24
2023-02-15T01:36:52.854Z,71.02
2023-02-15T01:38:55.741Z,71.27
2023-02-15T01:40:58.701Z,71.41
2023-02-15T01:43:01.413Z,71.16
2023-02-15T01:45:11.557Z,71.26
2023-02-15T01:47:20.470Z,71.25
2023-02-15T01:49:26.214Z,71.44
2023-02-15T01:51:31.303Z,71.09
2023-02-15T01:53:38.672Z,70.86
2023-02-15T01:55:47.459Z,70.98
2023-02-15T01:57:52.426Z,71.03
2023-02-15T01:59:59.417Z,70.91
2023-02-15T02:02:05.639Z,71.21
2023-02-15T02:04:13.859Z,71.38
2023-02-15T02:06:17.509Z,71.41
2023-02-15T02:08:20.357Z,71.78
2023-02-15T02:10:24.824Z,72.11
2023-02-15T02:12:28.347Z,72.10
2023-02-15T02:14:31.300Z,72.21
2023-02-15T02:16:45.859Z,71.83
2023-02-15T02:19:02.489Z,71.68
2023-02-15T02:21:31.771Z,71.67
2023-02-15T02:23:51.508Z,71.68
2023-02-15T02:26:26.136Z,71.68
2023-02-15T02:29:06.260Z,71.72
2023-02-15T02:31:40.188Z,71.74
2023-02-15T02:34:00.499Z,71.31
2023-02-15T02:36:15.370Z,71.46
2023-02-15T02:38:27.661Z,71.41
2023-02-15T02:40:39.322Z,71.56
2023-02-15T02:42:44.615Z,71.48
2023-02-15T02:44:50.936Z,71.87
2023-02-15T02:46:58.203Z,71.68
2023-02-15T02:49:02.212Z,71.90
2023-02-15T02:51:07.007Z,71.82
2023-02-15T02:53:10.824Z,71.76
2023-02-15T02:55:21.056Z,71.71
2023-02-15T02:57:27.487Z,71.45
2023-02-15T02:59:34.166Z,71.13
2023-02-15T03:01:41.456Z,71.52
2023-02-15T03:03:47.866Z,71.55
2023-02-15T03:05:55.159Z,71.33
2023-02-15T03:07:58.728Z,71.27
2023-02-15T03:10:05.220Z,71.36
2023-02-15T03:12:09.264Z,71.61
2023-02-15T03:14:14.752Z,71.52
2023-02-15T03:16:20.035Z,71.52
2023-02-15T03:18:26.105Z,71.52
2023-02-15T03:20:32.634Z,71.61
2023-02-15T03:22:42.935Z,71.54
2023-02-15T03:24:57.620Z,71.22
2023-02-15T03:27:03.355Z,71.57
2023-02-15T03:29:07.790Z,71.33
2023-02-15T03:31:14.775Z,71.41
2023-02-15T03:33:19.032Z,71.15
2023-02-15T03:35:25.977Z,70.92
2023-02-15T03:37:32.769Z,71.00
2023-02-15T03:39:40.341Z,70.98
2023-02-15T03:41:50.391Z,71.07
2023-02-15T03:43:57.146Z,71.29
2023-02-15T03:46:08.255Z,71.13
2023-02-15T03:48:11.114Z,71.02
2023-02-15T03:50:19.265Z,71.41
2023-02-15T03:52:25.157Z,71.63
2023-02-15T03:54:31.331Z,71.64
2023-02-15T03:56:37.260Z,71.54
2023-02-15T03:58:40.443Z,71.77
2023-02-15T04:00:50.333Z,72.06
2023-02-15T04:03:19.814Z,72.19
2023-02-15T04:05:22.718Z,72.21
2023-02-15T04:07:25.417Z,72.04
2023-02-15T04:09:28.185Z,71.80
2023-02-15T04:11:31.280Z,72.02
2023-02-15T04:13:34.289Z,72.30
2023-02-15T04:15:37.048Z,72.51
2023-02-15T04:17:39.804Z,72.17
2023-02-15T04:19:42.517Z,72.21
2023-02-15T04:21:45.277Z,72.11
2023-02-15T04:23:48.124Z,72.34
2023-02-15T04:25:54.016Z,72.10
2023-02-15T04:27:56.814Z,72.07
2023-02-15T04:29:59.688Z,72.29
2023-02-15T04:32:02.592Z,72.53
2023-02-15T04:34:05.356Z,72.38
2023-02-15T04:36:08.180Z,72.25
2023-02-15T04:38:10.956Z,72.68
2023-02-15T04:40:17.961Z,72.66
2023-02-15T04:42:24.689Z,72.77
2023-02-15T04:44:27.374Z,72.90
2023-02-15T04:46:30.153Z,72.71
2023-02-15T04:48:33.169Z,72.65
2023-02-15T04:50:35.940Z,72.75
2023-02-15T04:52:38.635Z,72.61
2023-02-15T04:54:41.688Z,72.40
2023-02-15T04:56:45.522Z,72.49
2023-02-15T04:58:48.536Z,72.14
2023-02-15T05:00:51.344Z,72.38
2023-02-15T05:02:54.108Z,72.40
2023-02-15T05:04:57.044Z,72.20
2023-02-15T05:06:59.810Z,72.23
2023-02-15T05:09:03.132Z,72.28
2023-02-15T05:11:05.863Z,72.08
2023-02-15T05:13:08.595Z,72.07
2023-02-15T05:15:11.424Z,72.37
2023-02-15T05:17:14.264Z,72.70
2023-02-15T05:19:19.987Z,72.65
2023-02-15T05:21:23.105Z,72.93
2023-02-15T05:23:25.859Z,73.07
2023-02-15T05:25:28.661Z,73.33
2023-02-15T05:27:31.414Z,73.36
2023-02-15T05:29:34.201Z,73.25
2023-02-15T05:31:40.634Z,73.10
2023-02-15T05:33:43.682Z,73.19
2023-02-15T05:35:46.398Z,73.33
2023-02-15T05:37:49.290Z,73.10
2023-02-15T05:39:52.103Z,72.85
2023-02-15T05:41:54.876Z,72.45
2023-02-15T05:43:57.717Z,72.59
2023-02-15T05:46:01.179Z,72.72
2023-02-15T05:48:04.515Z,72.41
2023-02-15T05:50:09.108Z,72.27
2023-02-15T05:52:11.857Z,71.93
2023-02-15T05:54:14.558Z,72.01
2023-02-15T05:56:17.388Z,71.64
2023-02-15T05:58:20.061Z,71.86
2023-02-15T06:00:23.265Z,72.00
2023-02-15T06:02:26.227Z,72.05
2023-02-15T06:04:29.186Z,71.84
2023-02-15T06:06:31.823Z,71.86
2023-02-15T06:08:36.537Z,71.78
2023-02-15T06:10:39.248Z,71.82
2023-02-15T06:12:42.011Z,71.74
2023-02-15T06:14:45.468Z,71.86
2023-02-15T06:16:48.159Z,71.82
2023-02-15T06:18:53.422Z,71.96
2023-02-15T06:20:56.483Z,72.09
2023-02-15T06:22:59.394Z,72.27
2023-02-15T06:25:02.750Z,72.20
2023-02-15T06:27:05.597Z,72.36
2023-02-15T06:29:08.515Z,72.29
2023-02-15T06:31:11.404Z,72.48
2023-02-15T06:33:14.320Z,72.74
2023-02-15T06:35:17.368Z,72.83
2023-02-15T06:37:21.172Z,73.36
2023-02-15T06:39:24.044Z,74.00
2023-02-15T06:41:26.898Z,74.15
2023-02-15T06:43:29.819Z,74.41
2023-02-15T06:45:33.645Z,74.38
2023-02-15T06:47:36.899Z,74.31
2023-02-15T06:49:39.679Z,73.98
2023-02-15T06:51:42.485Z,74.25
2023-02-15T06:53:45.185Z,73.63
2023-02-15T06:55:47.989Z,73.45
2023-02-15T06:57:51.182Z,73.49
2023-02-15T06:59:54.099Z,73.79
2023-02-15T07:01:57.039Z,74.35
2023-02-15T07:03:59.991Z,74.56
2023-02-15T07:06:04.988Z,75.12
2023-02-15T07:08:08.089Z,74.66
2023-02-15T07:10:11.018Z,74.58
2023-02-15T07:12:14.384Z,74.72
2023-02-15T07:14:17.254Z,75.03
2023-02-15T07:16:20.024Z,75.17
2023-02-15T07:18:22.849Z,75.08
2023-02-15T07:20:25.778Z,74.73
2023-02-15T07:22:28.478Z,74.50
2023-02-15T07:24:31.555Z,74.07
2023-02-15T07:26:34.210Z,73.50
2023-02-15T07:28:37.018Z,73.72
2023-02-15T07:30:39.761Z,74.02
2023-02-15T07:32:42.847Z,74.13
2023-02-15T07:34:45.892Z,73.87
2023-02-15T07:36:50.667Z,73.88
2023-02-15T07:38:53.547Z,74.28
2023-02-15T07:40:59.833Z,74.12
2023-02-15T07:43:02.578Z,73.97
2023-02-15T07:45:06.590Z,73.68
2023-02-15T07:47:09.457Z,73.43
2023-02-15T07:49:12.483Z,73.31
2023-02-15T07:51:15.280Z,72.72
2023-02-15T07:53:18.284Z,72.40
2023-02-15T07:55:21.620Z,73.07
2023-02-15T07:57:24.457Z,73.73
2023-02-15T07:59:27.263Z,73.91
2023-02-15T08:01:32.139Z,74.36
2023-02-15T08:03:34.893Z,74.42
2023-02-15T08:05:37.915Z,74.21
2023-02-15T08:07:40.668Z,73.79
2023-02-15T08:09:43.397Z,73.94
2023-02-15T08:11:48.135Z,73.80
2023-02-15T08:13:52.497Z,73.68
2023-02-15T08:15:55.871Z,73.65
2023-02-15T08:17:58.808Z,73.01
2023-02-15T08:20:01.619Z,72.44
2023-02-15T08:22:06.574Z,73.38
2023-02-15T08:24:10.726Z,73.87
2023-02-15T08:26:14.033Z,73.81
2023-02-15T08:28:16.859Z,73.61
2023-02-15T08:30:19.897Z,74.05
2023-02-15T08:32:22.881Z,73.82
2023-02-15T08:34:25.844Z,73.65
2023-02-15T08:36:30.400Z,73.59
2023-02-15T08:38:33.684Z,73.24
2023-02-15T08:40:36.396Z,73.12
2023-02-15T08:42:39.100Z,72.62
2023-02-15T08:44:41.823Z,72.79
2023-02-15T08:46:45.926Z,72.99
2023-02-15T08:48:48.926Z,72.72
2023-02-15T08:50:51.636Z,72.69
2023-02-15T08:52:54.437Z,72.73
2023-02-15T08:54:57.149Z,72.45
2023-02-15T08:56:59.956Z,72.66
2023-02-15T08:59:03.752Z,72.03
2023-02-15T09:01:14.427Z,72.08
2023-02-15T09:03:17.529Z,71.90
2023-02-15T09:05:20.415Z,71.64
2023-02-15T09:07:23.205Z,71.56
2023-02-15T09:09:26.013Z,71.29
2023-02-15T09:11:34.339Z,71.31
2023-02-15T09:13:37.782Z,71.47
2023-02-15T09:15:40.670Z,71.51
2023-02-15T09:17:43.639Z,71.60
2023-02-15T09:19:46.482Z,71.04
2023-02-15T09:21:49.487Z,70.76
2023-02-15T09:23:55.973Z,70.79
2023-02-15T09:26:03.356Z,70.68
2023-02-15T09:28:06.577Z,70.42
2023-02-15T09:30:11.413Z,70.43
2023-02-15T09:32:15.738Z,70.13
2023-02-15T09:34:20.636Z,69.78
2023-02-15T09:36:25.021Z,69.73
2023-02-15T09:38:30.519Z,68.90
2023-02-15T09:40:41.324Z,69.68
2023-02-15T09:43:21.272Z,69.87
2023-02-15T09:45:39.797Z,69.73
2023-02-15T09:47:58.076Z,69.41
2023-02-15T09:50:08.945Z,69.58
2023-02-15T09:52:41.707Z,70.03
2023-02-15T09:54:58.335Z,69.90
2023-02-15T09:57:10.839Z,70.60
2023-02-15T09:59:23.690Z,70.61
2023-02-15T10:01:34.881Z,70.44
2023-02-15T10:03:54.553Z,70.08
2023-02-15T10:06:12.254Z,69.85
2023-02-15T10:08:40.593Z,69.97
2023-02-15T10:10:51.971Z,69.82
2023-02-15T10:13:07.253Z,68.61
2023-02-15T10:15:43.061Z,68.39
2023-02-15T10:18:04.887Z,69.58
2023-02-15T10:20:18.033Z,69.15
2023-02-15T10:22:32.593Z,69.65
2023-02-15T10:24:52.903Z,69.92
2023-02-15T10:27:03.975Z,70.01
2023-02-15T10:29:10.204Z,70.01
2023-02-15T10:31:22.788Z,69.74
2023-02-15T10:33:39.445Z,69.37
2023-02-15T10:35:53.866Z,68.77
2023-02-15T10:38:09.091Z,68.58
2023-02-15T10:40:21.590Z,68.59
2023-02-15T10:42:38.075Z,68.17
2023-02-15T10:44:59.432Z,68.17
2023-02-15T10:47:28.047Z,68.38
2023-02-15T10:49:55.125Z,69.02
2023-02-15T10:52:11.201Z,69.16
2023-02-15T10:54:27.705Z,68.89
2023-02-15T10:56:38.602Z,68.18
2023-02-15T10:58:55.929Z,68.10
2023-02-15T11:01:07.498Z,68.53
2023-02-15T11:03:25.506Z,68.40
2023-02-15T11:05:41.989Z,68.19
2023-02-15T11:07:48.063Z,67.99
2023-02-15T11:09:53.971Z,67.78
2023-02-15T11:11:58.066Z,67.78
2023-02-15T11:14:05.807Z,67.55
2023-02-15T11:16:13.655Z,67.63
2023-02-15T11:18:24.246Z,67.58
2023-02-15T11:20:32.286Z,67.40
2023-02-15T11:22:36.157Z,67.26
2023-02-15T11:24:43.678Z,67.52
2023-02-15T11:26:52.185Z,67.69
2023-02-15T11:28:58.914Z,67.18
2023-02-15T11:31:13.591Z,67.04
2023-02-15T11:33:20.830Z,67.22
2023-02-15T11:35:31.394Z,67.09
2023-02-15T11:37:44.266Z,67.29
2023-02-15T11:39:48.050Z,67.52
2023-02-15T11:41:55.561Z,67.73
2023-02-15T11:44:05.760Z,67.97
2023-02-15T11:46:12.279Z,68.17
2023-02-15T11:48:16.147Z,67.97
2023-02-15T11:50:22.944Z,67.65
2023-02-15T11:52:26.138Z,67.90
2023-02-15T11:54:31.892Z,67.86
2023-02-15T11:56:35.392Z,67.95
2023-02-15T11:58:43.772Z,67.96
2023-02-15T12:00:50.466Z,68.15
2023-02-15T12:02:55.025Z,67.56
2023-02-15T12:05:01.752Z,67.44
2023-02-15T12:07:11.472Z,67.62
2023-02-15T12:09:25.470Z,67.81
2023-02-15T12:11:33.733Z,68.13
2023-02-15T12:13:36.609Z,67.78
2023-02-15T12:15:42.840Z,67.72
2023-02-15T12:17:53.012Z,67.64
2023-02-15T12:19:58.302Z,67.86
2023-02-15T12:22:04.001Z,67.76
2023-02-15T12:24:18.361Z,67.85
2023-02-15T12:26:27.301Z,67.36
2023-02-15T12:28:34.813Z,67.53
2023-02-15T12:30:38.398Z,67.65
2023-02-15T12:32:51.628Z,67.88
2023-02-15T12:35:01.720Z,68.31
2023-02-15T12:37:16.001Z,68.10
2023-02-15T12:39:23.504Z,67.79
2023-02-15T12:41:28.966Z,68.12
2023-02-15T12:43:34.710Z,68.30
2023-02-15T12:45:38.742Z,68.06
2023-02-15T12:47:41.698Z,68.08
2023-02-15T12:49:48.503Z,67.47
2023-02-15T12:54:41.183Z,67.70
2023-02-15T12:56:44.025Z,67.38
2023-02-15T12:58:46.843Z,67.28
2023-02-15T13:01:02.270Z,66.88
2023-02-15T13:03:05.242Z,66.98
2023-02-15T13:05:18.848Z,66.88
2023-02-15T13:07:22.349Z,66.55
2023-02-15T13:09:38.903Z,66.60
2023-02-15T13:11:44.416Z,66.72
2023-02-15T13:13:53.582Z,66.88
2023-02-15T13:15:58.910Z,66.94
2023-02-15T13:18:02.905Z,66.79
2023-02-15T13:20:16.880Z,66.89
2023-02-15T13:22:22.972Z,67.06
2023-02-15T13:24:28.205Z,66.88
2023-02-15T13:26:32.824Z,66.86
2023-02-15T13:28:41.419Z,67.36
2023-02-15T13:30:48.075Z,67.52
2023-02-15T13:32:55.387Z,67.62
2023-02-15T13:34:59.758Z,67.76
2023-02-15T13:37:08.421Z,68.09
2023-02-15T13:39:21.172Z,68.49
2023-02-15T13:41:30.512Z,68.55
2023-02-15T13:43:45.471Z,68.92
2023-02-15T13:46:01.600Z,69.26
2023-02-15T13:48:18.076Z,69.16
2023-02-15T13:50:42.269Z,69.44
2023-02-15T13:52:51.651Z,69.16
2023-02-15T13:55:14.475Z,69.16
2023-02-15T13:57:34.482Z,68.89
2023-02-15T13:59:57.304Z,69.01
2023-02-15T14:02:33.775Z,68.98
2023-02-15T14:05:14.798Z,68.59
2023-02-15T14:07:47.950Z,68.20
2023-02-15T14:10:02.945Z,67.99
2023-02-15T14:12:28.040Z,67.89
2023-02-15T14:14:46.508Z,67.17
2023-02-15T14:17:07.102Z,68.07
2023-02-15T14:19:24.439Z,68.78
2023-02-15T14:21:32.500Z,68.47
2023-02-15T14:23:48.214Z,67.63
2023-02-15T14:25:55.515Z,68.11
2023-02-15T14:28:06.344Z,68.32
2023-02-15T14:30:18.940Z,68.39
2023-02-15T14:32:29.990Z,67.75
2023-02-15T14:34:45.783Z,67.94
2023-02-15T14:36:49.554Z,68.29
2023-02-15T14:39:14.092Z,68.17
2023-02-15T14:41:22.175Z,68.31
2023-02-15T14:43:38.764Z,67.99
2023-02-15T14:45:50.022Z,68.55
2023-02-15T14:48:03.198Z,68.76
2023-02-15T14:50:42.315Z,68.82
2023-02-15T14:53:20.131Z,70.41
2023-02-15T14:55:37.105Z,70.42
2023-02-15T14:57:39.964Z,69.89
2023-02-15T14:59:50.649Z,69.76
2023-02-15T15:01:57.662Z,69.80
2023-02-15T15:04:04.892Z,69.45
2023-02-15T15:06:23.696Z,69.47
2023-02-15T15:08:35.580Z,69.65
2023-02-15T15:10:42.532Z,69.78
2023-02-15T15:12:47.767Z,69.73
2023-02-15T15:14:52.023Z,69.83
2023-02-15T15:16:54.902Z,69.93
2023-02-15T15:18:58.717Z,69.78
2023-02-15T15:21:02.107Z,70.01
2023-02-15T15:23:43.013Z,70.25
2023-02-15T15:25:49.033Z,70.42
2023-02-15T15:27:53.562Z,70.73
2023-02-15T15:29:56.777Z,70.60
2023-02-15T15:32:02.832Z,70.73
2023-02-15T15:34:21.982Z,71.16
2023-02-15T15:36:46.222Z,71.19
2023-02-15T15:39:02.399Z,71.26
2023-02-15T15:41:18.782Z,71.36
2023-02-15T15:43:52.006Z,71.61
2023-02-15T15:46:07.046Z,71.89
2023-02-15T15:48:31.391Z,72.48
2023-02-15T15:50:34.866Z,72.77
2023-02-15T15:52:38.259Z,72.81
2023-02-15T15:54:47.315Z,72.95
2023-02-15T15:56:55.533Z,72.99
2023-02-15T15:59:01.495Z,73.03
2023-02-15T16:01:07.789Z,73.12
2023-02-15T16:03:16.320Z,73.17
2023-02-15T16:05:20.279Z,73.47
2023-02-15T16:07:26.709Z,73.62
2023-02-15T16:09:30.039Z,73.89
2023-02-15T16:11:34.359Z,74.01
2023-02-15T16:13:43.624Z,74.29
2023-02-15T16:15:51.704Z,74.29
2023-02-15T16:17:58.924Z,74.42
2023-02-15T16:20:07.564Z,74.79
2023-02-15T16:22:16.414Z,75.01
2023-02-15T16:24:26.187Z,75.20
2023-02-15T16:26:58.856Z,75.25
2023-02-15T16:29:02.522Z,75.73
2023-02-15T16:31:13.200Z,75.83
2023-02-15T16:33:18.009Z,75.86
2023-02-15T16:35:24.207Z,75.89
2023-02-15T16:37:33.469Z,76.06
2023-02-15T16:39:42.298Z,76.44
2023-02-15T16:41:48.057Z,76.42
2023-02-15T16:43:54.545Z,76.87
2023-02-15T16:46:05.480Z,77.17
2023-02-15T16:48:16.127Z,77.30
2023-02-15T16:50:21.944Z,77.86
2023-02-15T16:52:28.733Z,77.71
2023-02-15T16:54:35.335Z,77.87
2023-02-15T16:56:40.011Z,78.09
2023-02-15T16:58:46.736Z,78.50
2023-02-15T17:00:51.367Z,78.81
2023-02-15T17:02:59.111Z,79.04
2023-02-15T17:05:17.708Z,79.29
2023-02-15T17:07:23.426Z,79.68
2023-02-15T17:09:28.498Z,79.73
2023-02-15T17:11:40.289Z,79.76
2023-02-15T17:14:12.733Z,80.06
2023-02-15T17:16:29.668Z,79.96
2023-02-15T17:18:39.852Z,79.90
2023-02-15T17:20:48.557Z,80.19
2023-02-15T17:22:54.014Z,80.08
2023-02-15T17:25:20.083Z,80.15
2023-02-15T17:27:30.393Z,80.37
2023-02-15T17:29:37.639Z,80.36
2023-02-15T17:31:49.945Z,80.65
2023-02-15T17:33:56.949Z,80.43
2023-02-15T17:36:12.065Z,81.02
2023-02-15T17:38:20.642Z,81.19
2023-02-15T17:40:29.932Z,81.29
2023-02-15T17:42:33.738Z,81.38
2023-02-15T17:44:40.693Z,81.71
2023-02-15T17:46:48.209Z,81.75
2023-02-15T17:48:54.785Z,81.60
2023-02-15T17:51:01.456Z,82.03
2023-02-15T17:53:12.742Z,81.88
2023-02-15T17:55:21.372Z,81.99
2023-02-15T17:57:25.965Z,81.99
2023-02-15T17:59:34.798Z,82.00
2023-02-15T18:01:49.069Z,82.44
2023-02-15T18:03:54.876Z,82.18
2023-02-15T18:06:03.248Z,82.41
2023-02-15T18:08:12.663Z,82.53
2023-02-15T18:10:20.677Z,82.53
2023-02-15T18:12:39.314Z,82.71
2023-02-15T18:14:51.453Z,82.75
2023-02-15T18:16:59.886Z,83.16
2023-02-15T18:19:05.216Z,83.09
2023-02-15T18:21:11.678Z,83.01
2023-02-15T18:23:19.679Z,83.37
2023-02-15T18:25:28.044Z,83.53
2023-02-15T18:27:36.103Z,83.92
2023-02-15T18:29:42.226Z,84.14
2023-02-15T18:31:51.465Z,84.41
2023-02-15T18:34:03.300Z,84.49
2023-02-15T18:36:19.964Z,84.18
2023-02-15T18:38:29.136Z,83.90
2023-02-15T18:40:34.578Z,84.05
2023-02-15T18:42:40.196Z,84.34
2023-02-15T18:44:45.303Z,84.55
2023-02-15T18:46:52.093Z,84.54
2023-02-15T18:48:57.942Z,84.72
2023-02-15T18:51:03.539Z,84.95
2023-02-15T18:53:15.493Z,84.89
2023-02-15T18:55:23.006Z,84.84
2023-02-15T18:57:28.976Z,84.95
2023-02-15T18:59:35.769Z,85.29
2023-02-15T19:01:41.496Z,85.46
2023-02-15T19:03:51.101Z,85.27
2023-02-15T19:05:59.325Z,85.35
2023-02-15T19:08:05.604Z,85.41
2023-02-15T19:10:22.814Z,85.73
2023-02-15T19:12:31.298Z,86.17
2023-02-15T19:14:38.033Z,85.69
2023-02-15T19:16:43.039Z,85.82
2023-02-15T19:18:48.458Z,85.97
2023-02-15T19:20:58.411Z,86.00
2023-02-15T19:23:06.938Z,86.20
2023-02-15T19:25:19.816Z,85.69
2023-02-15T19:27:32.548Z,85.65
2023-02-15T19:29:38.955Z,85.89
2023-02-15T19:31:44.373Z,85.99
2023-02-15T19:33:54.905Z,86.34
2023-02-15T19:36:00.990Z,85.85
2023-02-15T19:38:14.990Z,85.69
2023-02-15T19:40:23.471Z,85.67
2023-02-15T19:42:29.230Z,85.63
2023-02-15T19:44:37.418Z,85.32
2023-02-15T19:46:45.781Z,85.59
2023-02-15T19:48:55.994Z,85.46
2023-02-15T19:51:02.197Z,85.19
2023-02-15T19:53:15.204Z,85.69
2023-02-15T19:55:33.654Z,85.63
2023-02-15T19:57:40.633Z,85.94
2023-02-15T19:59:47.087Z,85.95
2023-02-15T20:01:52.869Z,85.84
2023-02-15T20:03:59.692Z,85.74
2023-02-15T20:06:07.103Z,86.27
2023-02-15T20:08:18.554Z,86.39
2023-02-15T20:10:27.077Z,86.31
2023-02-15T20:12:36.194Z,86.68
2023-02-15T20:14:41.360Z,86.91
2023-02-15T20:17:01.202Z,86.80
2023-02-15T20:19:10.589Z,86.31
2023-02-15T20:21:18.979Z,86.52
2023-02-15T20:23:30.887Z,86.31
2023-02-15T20:25:36.653Z,86.41
2023-02-15T20:27:42.830Z,86.32
2023-02-15T20:29:54.126Z,85.79
2023-02-15T20:32:00.276Z,85.33
2023-02-15T20:34:07.308Z,85.57
2023-02-15T20:36:19.963Z,85.42
2023-02-15T20:38:27.372Z,85.72
2023-02-15T20:40:37.376Z,85.72
2023-02-15T20:42:57.867Z,85.45
2023-02-15T20:45:23.423Z,85.06
2023-02-15T20:47:30.527Z,84.93
2023-02-15T20:49:37.576Z,84.74
2023-02-15T20:51:45.228Z,84.79
2023-02-15T20:54:00.468Z,84.86
2023-02-15T20:56:13.849Z,84.91
2023-02-15T20:58:23.784Z,84.57
2023-02-15T21:00:32.017Z,84.72
2023-02-15T21:02:46.537Z,84.97
2023-02-15T21:04:54.804Z,84.92
2023-02-15T21:07:01.316Z,85.09
2023-02-15T21:09:12.441Z,85.08
2023-02-15T21:11:23.615Z,85.20
2023-02-15T21:13:33.301Z,85.26
2023-02-15T21:15:39.057Z,85.54
2023-02-15T21:17:44.307Z,85.64
2023-02-15T21:19:55.262Z,85.67
2023-02-15T21:21:59.084Z,85.91
2023-02-15T21:24:04.344Z,85.92
2023-02-15T21:26:17.236Z,85.93
2023-02-15T21:28:26.318Z,86.09
2023-02-15T21:30:31.733Z,86.20
2023-02-15T21:32:38.819Z,86.06
2023-02-15T21:34:43.124Z,86.16
2023-02-15T21:36:48.494Z,86.14
2023-02-15T21:38:52.963Z,86.05
2023-02-15T21:40:58.679Z,86.25
2023-02-15T21:43:13.216Z,86.00
2023-02-15T21:45:19.977Z,85.90
2023-02-15T21:47:25.823Z,86.12
2023-02-15T21:49:31.291Z,86.31
2023-02-15T21:51:34.925Z,86.38
2023-02-15T21:53:43.533Z,86.57
2023-02-15T21:55:46.634Z,86.82
2023-02-15T21:57:50.074Z,86.92
2023-02-15T21:59:53.656Z,87.24
2023-02-15T22:01:57.349Z,87.27
2023-02-15T22:04:00.812Z,87.21
2023-02-15T22:06:04.375Z,87.16
2023-02-15T22:08:12.001Z,87.31
2023-02-15T22:10:14.941Z,87.37
2023-02-15T22:12:18.998Z,87.44
2023-02-15T22:14:36.643Z,87.42
2023-02-15T22:16:39.483Z,87.63
2023-02-15T22:18:42.362Z,87.77
2023-02-15T22:20:45.095Z,87.70
2023-02-15T22:22:48.762Z,87.92
2023-02-15T22:24:51.417Z,88.20
2023-02-15T22:26:54.366Z,88.30
2023-02-15T22:28:59.824Z,88.47
2023-02-15T22:31:03.549Z,87.98
2023-02-15T22:33:14.230Z,88.40
2023-02-15T22:35:22.419Z,88.64
2023-02-15T22:37:25.201Z,88.63
2023-02-15T22:39:28.048Z,89.00
2023-02-15T22:41:31.516Z,88.90
2023-02-15T22:43:39.160Z,88.79
2023-02-15T22:45:41.864Z,88.72
2023-02-15T22:47:46.324Z,88.88
2023-02-15T22:49:49.502Z,88.54
2023-02-15T22:51:52.321Z,88.49
2023-02-15T22:53:55.172Z,88.67
2023-02-15T22:56:03.213Z,89.12
2023-02-15T22:58:06.651Z,88.70
2023-02-15T23:00:16.458Z,87.58
2023-02-15T23:02:19.166Z,86.88
2023-02-15T23:04:24.770Z,86.92
2023-02-15T23:06:27.531Z,87.36
2023-02-15T23:08:30.305Z,87.08
2023-02-15T23:10:32.985Z,86.57
2023-02-15T23:12:35.768Z,86.79
2023-02-15T23:14:38.473Z,86.98
2023-02-15T23:16:41.285Z,86.86
2023-02-15T23:18:45.418Z,87.32
2023-02-15T23:20:51.112Z,87.69
2023-02-15T23:22:53.831Z,87.47
2023-02-15T23:24:56.787Z,87.59
2023-02-15T23:27:02.283Z,87.74
2023-02-15T23:29:12.874Z,87.79
2023-02-15T23:31:19.179Z,87.92
2023-02-15T23:33:26.616Z,87.94
2023-02-15T23:35:29.398Z,88.50
2023-02-15T23:37:32.081Z,88.46
2023-02-15T23:39:34.670Z,88.39
2023-02-15T23:41:37.394Z,89.03
2023-02-15T23:43:42.954Z,88.60
2023-02-15T23:45:45.812Z,88.77
2023-02-15T23:47:50.135Z,88.76
2023-02-15T23:49:52.784Z,89.02
2023-02-15T23:51:56.591Z,88.73
2023-02-15T23:53:59.461Z,89.36
2023-02-15T23:56:02.372Z,88.89
2023-02-15T23:58:06.506Z,88.72
